Time;durP1;ratioP1;P1;durP2;ratioP2;P2;SDS_P1;SDS_P2;PMS_P1;PMS_P2;Temp;Humidity;BMP_temperature;BMP_pressure;BME280_temperature;BME280_humidity;BME280_pressure;Samples;Min_cycle;Max_cycle;Signal;HPM_P1;HPM_P2
2023/08/21 00:01:13;;;;;;;6.40;1.85;;;;;;;14.16;100.00;102454.84;5093993;28;20039;-78
2023/08/21 00:03:39;;;;;;;7.22;2.20;;;;;;;14.14;100.00;102454.13;5095072;28;20073;-78
2023/08/21 00:06:04;;;;;;;4.32;1.83;;;;;;;14.10;100.00;102453.50;5094955;28;20032;-78
2023/08/21 00:08:29;;;;;;;6.75;1.67;;;;;;;14.08;100.00;102452.81;5076500;28;20079;-78
2023/08/21 00:10:55;;;;;;;5.88;1.63;;;;;;;14.05;100.00;102453.03;5094821;28;20032;-79
2023/08/21 00:13:20;;;;;;;2.88;1.40;;;;;;;14.03;100.00;102456.81;5094700;28;20479;-78
2023/08/21 00:15:46;;;;;;;5.30;1.95;;;;;;;14.01;100.00;102456.09;5094712;28;20032;-78
2023/08/21 00:18:11;;;;;;;6.70;2.20;;;;;;;13.96;100.00;102453.78;5094661;28;20427;-78
2023/08/21 00:20:37;;;;;;;4.78;1.90;;;;;;;13.96;100.00;102460.94;5094786;28;20474;-78
2023/08/21 00:23:02;;;;;;;3.33;1.70;;;;;;;13.95;100.00;102446.72;5095026;28;20039;-78
2023/08/21 00:25:27;;;;;;;10.10;2.10;;;;;;;13.93;100.00;102443.34;5076878;28;20040;-78
2023/08/21 00:27:53;;;;;;;6.93;1.80;;;;;;;13.91;100.00;102446.13;5094806;28;20036;-78
2023/08/21 00:30:18;;;;;;;2.72;1.80;;;;;;;13.90;100.00;102448.94;5094764;28;20034;-77
2023/08/21 00:32:43;;;;;;;3.17;1.50;;;;;;;13.88;100.00;102445.50;5076131;28;20048;-77
2023/08/21 00:35:09;;;;;;;3.85;1.55;;;;;;;13.85;100.00;102438.59;5094345;28;20028;-78
2023/08/21 00:37:34;;;;;;;5.90;1.80;;;;;;;13.83;100.00;102435.16;5094563;28;20070;-77
2023/08/21 00:39:59;;;;;;;5.57;1.83;;;;;;;13.82;100.00;102438.81;5094130;28;20391;-77
2023/08/21 00:42:25;;;;;;;4.68;2.10;;;;;;;13.81;100.00;102441.59;5094176;28;20027;-77
2023/08/21 00:44:50;;;;;;;4.90;2.17;;;;;;;13.80;100.00;102445.28;5094503;28;20028;-77
2023/08/21 00:47:16;;;;;;;6.15;2.05;;;;;;;13.75;100.00;102448.31;5094564;28;20048;-77
2023/08/21 00:49:42;;;;;;;6.20;2.17;;;;;;;13.71;100.00;102439.66;5094394;28;20089;-77
2023/08/21 00:52:10;;;;;;;5.60;2.00;;;;;;;13.71;100.00;102442.34;5093933;28;20066;-78
2023/08/21 00:54:36;;;;;;;5.30;1.80;;;;;;;13.70;100.00;102443.34;5094601;28;20115;-78
2023/08/21 00:57:02;;;;;;;3.85;2.17;;;;;;;13.71;100.00;102442.34;5093895;28;20032;-78
2023/08/21 00:59:28;;;;;;;4.95;2.05;;;;;;;13.75;100.00;102448.31;5093912;28;20024;-77
2023/08/21 01:01:54;;;;;;;6.75;2.30;;;;;;;13.75;100.00;102442.97;5093956;28;20028;-78
2023/08/21 01:04:19;;;;;;;3.67;1.67;;;;;;;13.74;100.00;102443.94;5094053;28;20372;-77
2023/08/21 01:06:45;;;;;;;6.40;2.20;;;;;;;13.74;100.00;102444.75;5094139;28;20071;-78
2023/08/21 01:09:21;;;;;;;6.50;2.17;;;;;;;13.73;100.00;102440.41;5094038;28;20028;-78
2023/08/21 01:12:13;;;;;;;5.40;1.90;;;;;;;13.71;100.00;102442.34;5093799;28;20107;-77
2023/08/21 01:14:53;;;;;;;7.40;2.30;;;;;;;13.69;100.00;102446.09;5057559;28;20036;-77
2023/08/21 01:17:19;;;;;;;4.88;1.88;;;;;;;13.67;100.00;102450.72;5094148;28;20028;-77
2023/08/21 01:19:48;;;;;;;5.57;1.80;;;;;;;13.67;100.00;102454.25;5094086;28;20028;-78
2023/08/21 01:22:13;;;;;;;4.55;1.58;;;;;;;13.67;100.00;102446.22;5094012;28;20031;-78
2023/08/21 01:24:38;;;;;;;7.07;1.95;;;;;;;13.69;100.00;102449.63;5093576;28;20039;-77
2023/08/21 01:27:04;;;;;;;7.97;2.35;;;;;;;13.71;100.00;102450.38;5094004;28;20089;-77
2023/08/21 01:29:30;;;;;;;4.10;1.90;;;;;;;13.74;100.00;102451.94;5093998;28;20472;-76
2023/08/21 01:32:09;;;;;;;6.28;2.53;;;;;;;13.76;100.00;102452.66;5093811;28;20131;-77
2023/08/21 01:34:40;;;;;;;5.55;2.05;;;;;;;13.79;100.00;102449.75;5093716;28;20028;-76
2023/08/21 01:37:06;;;;;;;10.65;2.45;;;;;;;13.83;100.00;102458.41;5093689;28;20476;-76
2023/08/21 01:39:32;;;;;;;5.13;2.05;;;;;;;13.84;100.00;102454.72;5075120;28;20083;-76
2023/08/21 01:41:58;;;;;;;5.03;2.20;;;;;;;13.82;100.00;102452.19;5093364;28;20043;-77
2023/08/21 01:44:24;;;;;;;4.05;1.90;;;;;;;13.77;100.00;102446.34;5093770;28;20356;-76
2023/08/21 01:46:49;;;;;;;4.40;1.90;;;;;;;13.72;100.00;102449.41;5075396;28;20036;-77
2023/08/21 01:49:14;;;;;;;7.80;2.30;;;;;;;13.70;100.00;102448.69;5093641;28;20036;-77
2023/08/21 01:51:40;;;;;;;5.57;2.03;;;;;;;13.70;100.00;102451.34;5075340;28;20043;-77
2023/08/21 01:54:05;;;;;;;9.50;2.30;;;;;;;13.71;100.00;102454.88;5075134;28;20038;-76
2023/08/21 01:56:30;;;;;;;6.78;2.17;;;;;;;13.72;100.00;102454.75;5092898;28;20111;-76
2023/08/21 01:58:56;;;;;;;7.20;2.40;;;;;;;13.71;100.00;102462.91;5093399;28;20028;-77
2023/08/21 02:01:21;;;;;;;6.03;2.20;;;;;;;13.68;100.00;102452.44;5092804;28;20085;-77
2023/08/21 02:03:46;;;;;;;9.50;2.80;;;;;;;13.66;100.00;102457.03;5075735;28;20468;-77
2023/08/21 02:06:12;;;;;;;6.15;2.97;;;;;;;13.65;100.00;102458.03;5093239;28;20032;-76
2023/08/21 02:08:37;;;;;;;5.68;2.15;;;;;;;13.63;100.00;102463.50;5092930;28;20040;-76
2023/08/21 02:11:03;;;;;;;7.13;2.38;;;;;;;13.64;100.00;102459.84;5092987;28;20028;-76
2023/08/21 02:13:28;;;;;;;7.30;2.03;;;;;;;13.61;100.00;102460.06;5093551;28;20039;-77
2023/08/21 02:15:54;;;;;;;5.55;2.20;;;;;;;13.60;100.00;102462.88;5092895;28;20453;-76
2023/08/21 02:18:19;;;;;;;5.53;2.35;;;;;;;13.53;100.00;102455.31;5093445;28;20143;-76
2023/08/21 02:20:44;;;;;;;5.20;2.47;;;;;;;13.49;100.00;102453.00;5093075;28;20491;-76
2023/08/21 02:23:10;;;;;;;7.80;2.95;;;;;;;13.48;100.00;102462.88;5094156;28;20028;-76
2023/08/21 02:25:35;;;;;;;6.90;3.55;;;;;;;13.47;100.00;102457.63;5096770;28;20039;-76
2023/08/21 02:28:01;;;;;;;6.38;3.15;;;;;;;13.44;100.00;102458.72;5096837;28;20448;-76
2023/08/21 02:30:28;;;;;;;6.85;3.20;;;;;;;13.42;100.00;102460.66;5096680;28;20040;-76
2023/08/21 02:32:54;;;;;;;7.72;2.85;;;;;;;13.40;100.00;102455.44;5096665;28;20438;-77
2023/08/21 02:35:22;;;;;;;6.05;2.70;;;;;;;13.36;100.00;102459.31;5096852;28;20482;-77
2023/08/21 02:37:48;;;;;;;7.78;2.53;;;;;;;13.34;100.00;102461.22;5096329;28;20484;-76
2023/08/21 02:40:13;;;;;;;4.40;2.30;;;;;;;13.35;100.00;102467.47;5096578;28;20089;-76
2023/08/21 02:42:39;;;;;;;7.43;2.25;;;;;;;13.33;100.00;102466.66;5096160;28;20088;-76
2023/08/21 02:45:08;;;;;;;6.20;2.65;;;;;;;13.32;100.00;102451.63;5096564;28;20380;-76
2023/08/21 02:47:43;;;;;;;4.38;2.13;;;;;;;13.29;100.00;102460.72;5096347;28;20032;-76
2023/08/21 02:50:09;;;;;;;3.85;1.90;;;;;;;13.26;100.00;102457.44;5096524;28;20039;-76
2023/08/21 02:52:35;;;;;;;5.13;2.10;;;;;;;13.22;100.00;102460.31;5097159;28;20047;-76
2023/08/21 02:55:01;;;;;;;6.13;2.60;;;;;;;13.22;100.00;102454.97;5096411;28;20039;-76
2023/08/21 02:57:27;;;;;;;6.25;2.00;;;;;;;13.21;100.00;102457.75;5096626;28;20333;-77
2023/08/21 02:59:53;;;;;;;4.18;2.03;;;;;;;13.20;100.00;102456.06;5096267;28;20080;-76
2023/08/21 03:02:18;;;;;;;7.05;2.30;;;;;;;13.16;100.00;102457.28;5096245;28;20028;-76
2023/08/21 03:04:44;;;;;;;5.53;2.13;;;;;;;13.14;100.00;102454.72;5095858;28;20537;-76
2023/08/21 03:07:09;;;;;;;5.45;2.00;;;;;;;13.09;100.00;102453.34;5095818;28;20395;-76
2023/08/21 03:09:36;;;;;;;7.32;1.90;;;;;;;13.03;100.00;102447.53;5095983;28;20047;-77
2023/08/21 03:12:01;;;;;;;3.85;1.85;;;;;;;13.02;100.00;102445.81;5095719;28;20039;-77
2023/08/21 03:14:27;;;;;;;6.20;1.98;;;;;;;13.01;100.00;102446.78;5095898;28;20036;-77
2023/08/21 03:16:52;;;;;;;4.93;1.80;;;;;;;13.02;100.00;102448.47;5096345;28;20031;-77
2023/08/21 03:19:17;;;;;;;3.97;2.00;;;;;;;13.00;100.00;102439.75;5095795;28;20043;-77
2023/08/21 03:21:43;;;;;;;5.88;2.10;;;;;;;12.96;100.00;102442.75;5095731;28;20536;-76
2023/08/21 03:24:08;;;;;;;3.78;2.17;;;;;;;12.94;100.00;102434.84;5096271;28;20036;-77
2023/08/21 03:26:34;;;;;;;5.25;1.92;;;;;;;12.94;100.00;102450.88;5096202;28;20038;-77
2023/08/21 03:28:59;;;;;;;3.75;1.85;;;;;;;12.93;100.00;102449.19;5096203;28;20038;-77
2023/08/21 03:31:25;;;;;;;4.63;1.98;;;;;;;12.90;100.00;102444.06;5095662;28;20489;-76
2023/08/21 03:33:50;;;;;;;4.43;1.80;;;;;;;12.87;100.00;102442.47;5095410;28;20052;-76
2023/08/21 03:36:15;;;;;;;8.23;2.35;;;;;;;12.86;100.00;102445.25;5076538;28;20081;-77
2023/08/21 03:38:41;;;;;;;7.45;2.60;;;;;;;12.84;100.00;102441.88;5095401;28;20063;-77
2023/08/21 03:41:06;;;;;;;4.57;2.30;;;;;;;12.83;100.00;102446.34;5095522;28;20078;-77
2023/08/21 03:43:32;;;;;;;6.43;2.40;;;;;;;12.83;100.00;102434.81;5095416;28;20468;-77
2023/08/21 03:45:58;;;;;;;6.75;2.47;;;;;;;12.85;100.00;102448.88;5095429;28;20130;-77
2023/08/21 03:48:23;;;;;;;3.92;2.15;;;;;;;12.82;100.00;102443.78;5095251;28;20381;-77
2023/08/21 03:50:49;;;;;;;5.40;2.25;;;;;;;12.82;100.00;102444.66;5095322;28;20040;-77
2023/08/21 03:53:15;;;;;;;3.95;2.00;;;;;;;12.83;100.00;102438.31;5095435;28;20058;-77
2023/08/21 03:55:40;;;;;;;4.65;2.10;;;;;;;12.82;100.00;102435.75;5095154;28;20107;-77
2023/08/21 03:58:06;;;;;;;4.20;2.08;;;;;;;12.80;100.00;102440.38;5095135;28;20032;-77
2023/08/21 04:00:31;;;;;;;5.88;1.90;;;;;;;12.77;100.00;102437.94;5095009;28;20388;-77
2023/08/21 04:02:57;;;;;;;4.97;2.08;;;;;;;12.75;100.00;102439.84;5095133;28;20396;-77
2023/08/21 04:05:23;;;;;;;4.65;2.20;;;;;;;12.75;100.00;102440.72;5095094;28;20039;-77
2023/08/21 04:07:48;;;;;;;5.70;2.40;;;;;;;12.70;100.00;102438.41;5094804;28;20101;-76
2023/08/21 04:10:13;;;;;;;7.93;2.38;;;;;;;12.68;100.00;102432.31;5094619;28;20082;-76
2023/08/21 04:12:39;;;;;;;3.60;1.80;;;;;;;12.68;100.00;102431.47;5094757;28;20032;-77
2023/08/21 04:15:06;;;;;;;6.55;2.10;;;;;;;12.67;100.00;102438.63;5094837;28;20363;-77
2023/08/21 04:17:31;;;;;;;4.95;2.50;;;;;;;12.69;100.00;102441.19;5094336;28;20032;-77
2023/08/21 04:19:57;;;;;;;7.70;2.60;;;;;;;12.69;100.00;102447.38;5095276;28;20089;-77
2023/08/21 04:22:22;;;;;;;5.43;3.03;;;;;;;12.70;100.00;102449.09;5094900;28;20460;-77
2023/08/21 04:24:48;;;;;;;7.57;2.10;;;;;;;12.70;100.00;102453.56;5094790;28;20036;-77
2023/08/21 04:27:13;;;;;;;5.00;2.38;;;;;;;12.69;100.00;102452.72;5094777;28;20032;-77
2023/08/21 04:29:39;;;;;;;3.05;2.10;;;;;;;12.68;100.00;102451.00;5094196;28;20039;-77
2023/08/21 04:32:05;;;;;;;6.38;2.22;;;;;;;12.68;100.00;102451.00;5094414;28;20044;-77
2023/08/21 04:34:32;;;;;;;7.22;2.90;;;;;;;12.70;100.00;102451.75;5094696;28;20036;-77
2023/08/21 04:36:57;;;;;;;6.65;2.83;;;;;;;12.70;100.00;102449.09;5094183;28;20466;-77
2023/08/21 04:39:23;;;;;;;5.82;2.80;;;;;;;12.74;100.00;102449.69;5094387;28;20115;-76
2023/08/21 04:41:48;;;;;;;6.03;2.80;;;;;;;12.79;100.00;102454.69;5094736;28;20372;-77
2023/08/21 04:44:13;;;;;;;6.35;2.40;;;;;;;12.82;100.00;102449.13;5094296;28;20024;-77
2023/08/21 04:46:39;;;;;;;5.80;2.65;;;;;;;12.83;100.00;102456.19;5093816;28;20036;-78
2023/08/21 04:49:04;;;;;;;4.78;2.45;;;;;;;12.86;100.00;102458.63;5093958;28;20078;-77
2023/08/21 04:51:30;;;;;;;6.65;2.40;;;;;;;12.86;100.00;102458.63;5094104;28;20461;-77
2023/08/21 04:53:55;;;;;;;7.43;3.00;;;;;;;12.87;100.00;102457.66;5094034;28;20437;-77
2023/08/21 04:56:20;;;;;;;6.47;2.97;;;;;;;12.86;100.00;102462.13;5093950;28;20475;-77
2023/08/21 04:58:46;;;;;;;5.07;2.65;;;;;;;12.85;100.00;102455.09;5093676;28;20081;-77
2023/08/21 05:01:12;;;;;;;6.20;2.40;;;;;;;12.84;100.00;102461.41;5094179;28;20116;-77
2023/08/21 05:03:37;;;;;;;3.88;2.45;;;;;;;12.85;100.00;102459.56;5075740;28;20119;-79
2023/08/21 05:06:02;;;;;;;4.30;2.20;;;;;;;12.86;100.00;102455.94;5093895;28;20036;-76
2023/08/21 05:08:28;;;;;;;4.63;2.60;;;;;;;12.88;100.00;102460.22;5093821;28;20042;-76
2023/08/21 05:10:58;;;;;;;3.80;2.33;;;;;;;12.92;100.00;102460.81;5093643;28;20036;-76
2023/08/21 05:13:23;;;;;;;8.13;2.70;;;;;;;12.93;100.00;102459.00;5093902;28;20067;-76
2023/08/21 05:15:53;;;;;;;7.22;2.80;;;;;;;12.94;100.00;102456.22;5094012;28;20501;-76
2023/08/21 05:18:19;;;;;;;6.93;3.35;;;;;;;12.95;100.00;102457.91;5093586;28;20093;-77
2023/08/21 05:20:44;;;;;;;6.07;3.08;;;;;;;12.98;100.00;102462.19;5093574;28;20043;-76
2023/08/21 05:23:09;;;;;;;7.53;3.72;;;;;;;13.01;100.00;102465.47;5093898;28;20032;-76
2023/08/21 05:25:35;;;;;;;7.65;3.58;;;;;;;13.05;100.00;102466.94;5093830;28;20040;-77
2023/08/21 05:28:00;;;;;;;7.05;3.60;;;;;;;13.09;100.00;102472.06;5094047;28;20063;-76
2023/08/21 05:30:26;;;;;;;8.15;3.47;;;;;;;13.13;100.00;102476.22;5093423;28;20056;-77
2023/08/21 05:32:51;;;;;;;10.80;4.28;;;;;;;13.18;100.00;102474.03;5093330;28;20463;-77
2023/08/21 05:35:16;;;;;;;6.70;3.38;;;;;;;13.22;100.00;102467.50;5093137;28;20410;-77
2023/08/21 05:37:42;;;;;;;10.02;3.65;;;;;;;13.30;100.00;102477.59;5075084;28;20042;-77
2023/08/21 05:40:07;;;;;;;7.10;3.67;;;;;;;13.35;100.00;102475.47;5093346;28;20089;-77
2023/08/21 05:42:33;;;;;;;13.32;5.90;;;;;;;13.39;100.00;102475.13;5093334;28;20502;-77
2023/08/21 05:44:58;;;;;;;16.90;8.10;;;;;;;13.42;100.00;102476.72;5093265;28;20043;-78
2023/08/21 05:47:24;;;;;;;14.13;6.15;;;;;;;13.47;100.00;102471.84;5093625;28;20510;-78
2023/08/21 05:49:50;;;;;;;11.02;5.68;;;;;;;13.54;100.00;102474.88;5093146;28;20032;-79
2023/08/21 05:52:15;;;;;;;9.23;5.00;;;;;;;13.62;100.00;102474.31;5093319;28;20024;-79
2023/08/21 05:54:41;;;;;;;9.25;4.40;;;;;;;13.68;100.00;102474.69;5092849;28;20032;-77
2023/08/21 05:57:06;;;;;;;11.55;4.50;;;;;;;13.75;100.00;102470.56;5093693;28;20123;-77
2023/08/21 05:59:32;;;;;;;10.43;3.88;;;;;;;13.86;100.00;102466.19;5096617;28;20032;-78
2023/08/21 06:01:58;;;;;;;10.23;3.63;;;;;;;13.93;100.00;102470.94;5097695;28;20468;-76
2023/08/21 06:04:24;;;;;;;8.15;5.20;;;;;;;14.05;100.00;102476.28;5097266;28;20038;-76
2023/08/21 06:06:49;;;;;;;9.23;6.63;;;;;;;14.16;100.00;102481.63;5078642;28;20040;-76
2023/08/21 06:09:17;;;;;;;9.77;5.95;;;;;;;14.27;100.00;102473.59;5097205;28;20167;-76
2023/08/21 06:11:42;;;;;;;11.85;6.25;;;;;;;14.41;100.00;102483.19;5080146;28;20036;-77
2023/08/21 06:14:08;;;;;;;11.02;5.80;;;;;;;14.57;100.00;102481.91;5097484;28;20077;-77
2023/08/21 06:16:33;;;;;;;11.75;4.72;;;;;;;14.72;100.00;102487.88;5097166;28;20372;-77
2023/08/21 06:18:58;;;;;;;10.57;4.95;;;;;;;14.87;100.00;102489.31;5097092;28;20464;-77
2023/08/21 06:21:24;;;;;;;11.82;4.80;;;;;;;15.02;100.00;102487.19;5096784;28;20084;-77
2023/08/21 06:23:49;;;;;;;19.00;5.40;;;;;;;15.19;100.00;102487.59;5096908;28;20032;-77
2023/08/21 06:26:14;;;;;;;13.45;5.22;;;;;;;15.42;100.00;102486.50;5097227;28;20059;-76
2023/08/21 06:28:40;;;;;;;20.67;6.75;;;;;;;15.64;100.00;102490.00;5096622;28;20060;-76
2023/08/21 06:31:07;;;;;;;23.13;6.10;;;;;;;15.90;100.00;102494.97;5062621;28;20062;-76
2023/08/21 06:33:33;;;;;;;18.02;5.95;;;;;;;16.07;100.00;102480.09;5097278;28;20380;-76
2023/08/21 06:35:58;;;;;;;18.20;5.95;;;;;;;16.25;100.00;102499.09;5078457;28;20059;-76
2023/08/21 06:38:24;;;;;;;21.38;5.78;;;;;;;16.38;100.00;102500.53;5097739;28;20399;-76
2023/08/21 06:40:50;;;;;;;12.80;4.65;;;;;;;16.54;100.00;102494.66;5096276;28;20091;-76
2023/08/21 06:43:16;;;;;;;19.38;5.15;;;;;;;16.70;100.00;102496.78;5096590;28;20043;-76
2023/08/21 06:45:41;;;;;;;19.42;5.38;;;;;;;16.86;100.00;102504.31;5096943;28;20040;-77
2023/08/21 06:48:07;;;;;;;16.08;4.93;;;;;;;16.99;100.00;102496.00;5096508;28;20150;-76
2023/08/21 06:50:32;;;;;;;20.58;5.00;;;;;;;17.13;100.00;102494.72;5078513;28;20460;-76
2023/08/21 06:52:57;;;;;;;12.93;3.97;;;;;;;17.23;100.00;102492.88;5096672;28;20104;-76
2023/08/21 06:55:23;;;;;;;15.65;4.70;;;;;;;17.34;100.00;102501.81;5096615;28;20032;-77
2023/08/21 06:57:48;;;;;;;16.40;4.30;;;;;;;17.50;100.00;102504.75;5096134;28;20028;-75
2023/08/21 07:00:14;;;;;;;10.95;3.72;;;;;;;17.64;100.00;102503.44;5096183;28;20032;-76
2023/08/21 07:02:39;;;;;;;12.27;3.97;;;;;;;17.70;100.00;102502.84;5096265;28;20119;-78
2023/08/21 07:05:05;;;;;;;9.68;3.22;;;;;;;17.82;100.00;102494.59;5096100;28;20058;-76
2023/08/21 07:07:30;;;;;;;15.95;4.32;;;;;;;17.95;100.00;102496.00;5096486;28;20044;-76
2023/08/21 07:09:56;;;;;;;16.05;4.13;;;;;;;18.04;100.00;102502.34;5095475;28;20130;-76
2023/08/21 07:12:22;;;;;;;16.00;4.03;;;;;;;18.10;100.00;102499.06;5096004;28;20032;-75
2023/08/21 07:14:47;;;;;;;15.07;4.35;;;;;;;18.20;100.00;102496.34;5096024;28;20375;-76
2023/08/21 07:17:13;;;;;;;15.02;3.60;;;;;;;18.24;100.00;102497.75;5096030;28;20071;-76
2023/08/21 07:19:38;;;;;;;12.55;3.72;;;;;;;18.33;100.00;102494.13;5096176;28;20040;-76
2023/08/21 07:22:03;;;;;;;12.10;3.70;;;;;;;18.44;100.00;102501.16;5096370;28;20066;-76
2023/08/21 07:24:29;;;;;;;13.88;3.50;;;;;;;18.52;100.00;102504.97;5096397;28;20039;-77
2023/08/21 07:26:54;;;;;;;12.68;3.58;;;;;;;18.64;100.00;102506.44;5095661;28;20116;-77
2023/08/21 07:29:20;;;;;;;12.52;3.13;;;;;;;18.73;100.00;102501.97;5095753;28;20063;-79
2023/08/21 07:31:45;;;;;;;12.60;3.22;;;;;;;18.82;100.00;102504.63;5095737;28;20404;-77
2023/08/21 07:34:10;;;;;;;11.30;2.60;;;;;;;18.95;100.00;102506.94;5095626;28;20028;-77
2023/08/21 07:36:36;;;;;;;11.13;3.15;;;;;;;19.02;100.00;102510.72;5095600;28;20032;-76
2023/08/21 07:39:01;;;;;;;13.18;3.00;;;;;;;19.07;100.00;102509.41;5095382;28;20032;-76
2023/08/21 07:41:26;;;;;;;12.27;3.30;;;;;;;19.13;100.00;102506.94;5096314;28;20372;-76
2023/08/21 07:43:52;;;;;;;12.18;3.60;;;;;;;19.21;100.00;102511.53;5095486;28;20119;-75
2023/08/21 07:46:18;;;;;;;8.80;2.42;;;;;;;19.30;100.00;102505.25;5095359;28;20515;-75
2023/08/21 07:48:46;;;;;;;15.25;2.90;;;;;;;19.39;100.00;102508.81;5077064;28;20441;-76
2023/08/21 07:51:12;;;;;;;11.57;2.83;;;;;;;19.49;100.00;102519.53;5095180;28;20028;-76
2023/08/21 07:53:38;;;;;;;10.82;2.47;;;;;;;19.60;100.00;102524.69;5095441;28;20094;-76
2023/08/21 07:56:04;;;;;;;13.15;2.55;;;;;;;19.72;100.00;102520.72;5094982;28;20071;-76
2023/08/21 07:58:30;;;;;;;9.18;2.13;;;;;;;19.87;100.00;102510.19;5095038;28;20028;-76
2023/08/21 08:00:56;;;;;;;9.70;2.75;;;;;;;20.07;100.00;102515.38;5076991;28;20028;-76
2023/08/21 08:03:21;;;;;;;15.95;2.30;;;;;;;20.23;100.00;102512.75;5094962;28;20123;-76
2023/08/21 08:05:47;;;;;;;9.75;1.83;;;;;;;20.47;100.00;102515.69;5094973;28;20036;-75
2023/08/21 08:08:12;;;;;;;7.78;2.00;;;;;;;20.77;100.00;102507.00;5095079;28;20028;-76
2023/08/21 08:10:39;;;;;;;9.60;2.38;;;;;;;21.17;100.00;102518.06;5077279;28;20032;-76
2023/08/21 08:13:04;;;;;;;11.77;2.40;;;;;;;21.41;100.00;102521.78;5094725;28;20032;-75
2023/08/21 08:15:30;;;;;;;9.02;2.55;;;;;;;21.71;100.00;102516.69;5095369;28;20055;-77
2023/08/21 08:17:55;;;;;;;10.25;2.40;;;;;;;22.00;100.00;102516.09;5094653;28;20161;-77
2023/08/21 08:20:21;;;;;;;7.70;1.98;;;;;;;22.15;100.00;102521.63;5093974;28;20032;-76
2023/08/21 08:22:46;;;;;;;8.27;2.17;;;;;;;22.54;100.00;102526.22;5076622;28;20039;-77
2023/08/21 08:25:13;;;;;;;5.30;1.75;;;;;;;22.94;100.00;102521.56;5094349;28;20590;-77
2023/08/21 08:27:39;;;;;;;8.35;2.33;;;;;;;23.12;100.00;102517.72;5094470;28;20042;-77
2023/08/21 08:30:05;;;;;;;11.40;2.15;;;;;;;23.23;100.00;102510.00;5094790;28;20032;-76
2023/08/21 08:32:30;;;;;;;6.53;1.63;;;;;;;23.30;100.00;102510.09;5094439;28;20499;-76
2023/08/21 08:34:55;;;;;;;9.93;1.92;;;;;;;23.29;100.00;102504.84;5094155;28;20032;-76
2023/08/21 08:37:21;;;;;;;8.23;1.98;;;;;;;23.25;100.00;102501.66;5094471;28;20028;-76
2023/08/21 08:39:47;;;;;;;7.05;1.70;;;;;;;23.34;100.00;102502.44;5076677;28;20445;-76
2023/08/21 08:42:14;;;;;;;8.65;2.25;;;;;;;23.47;100.00;102496.34;5094588;28;20043;-76
2023/08/21 08:44:41;;;;;;;9.45;1.92;;;;;;;23.49;100.00;102492.44;5094293;28;20040;-76
2023/08/21 08:47:06;;;;;;;7.05;2.05;;;;;;;23.69;100.00;102505.47;5094076;28;20482;-77
2023/08/21 08:49:32;;;;;;;8.90;2.40;;;;;;;23.79;100.00;102507.94;5093894;28;20028;-79
2023/08/21 08:51:59;;;;;;;8.20;1.90;;;;;;;23.85;100.00;102510.75;5094193;28;20071;-77
2023/08/21 08:54:25;;;;;;;13.25;1.95;;;;;;;23.81;100.00;102509.44;5075983;28;20032;-77
2023/08/21 08:56:51;;;;;;;5.78;1.73;;;;;;;23.92;100.00;102502.72;5094235;28;20028;-77
2023/08/21 08:59:16;;;;;;;7.60;1.85;;;;;;;24.15;100.00;102508.03;5093960;28;20111;-77
2023/08/21 09:01:42;;;;;;;6.63;1.75;;;;;;;24.50;100.00;102505.53;5075722;28;20023;-78
2023/08/21 09:04:08;;;;;;;10.23;2.10;;;;;;;25.14;100.00;102515.63;5094003;28;20036;-77
2023/08/21 09:06:34;;;;;;;5.38;1.88;;;;;;;25.90;100.00;102519.56;5093975;28;20032;-77
2023/08/21 09:08:59;;;;;;;8.50;1.88;;;;;;;26.17;100.00;102522.44;5093917;28;20028;-77
2023/08/21 09:11:26;;;;;;;6.22;1.80;;;;;;;26.42;100.00;102505.53;5093810;28;20093;-78
2023/08/21 09:13:53;;;;;;;8.25;1.70;;;;;;;27.08;100.00;102497.50;5093769;28;20036;-76
2023/08/21 09:16:19;;;;;;;7.22;2.05;;;;;;;26.99;92.68;102509.69;5093824;28;20089;-78
2023/08/21 09:18:49;;;;;;;5.80;1.45;;;;;;;27.01;91.00;102512.22;5093779;28;20036;-77
2023/08/21 09:21:19;;;;;;;5.25;1.83;;;;;;;26.46;93.36;102510.38;5093603;28;20032;-77
2023/08/21 09:23:45;;;;;;;7.53;1.95;;;;;;;25.60;100.00;102508.03;5093595;28;20080;-77
2023/08/21 09:26:19;;;;;;;4.45;1.52;;;;;;;24.90;100.00;102507.84;5094390;28;20067;-78
2023/08/21 09:28:44;;;;;;;5.63;1.80;;;;;;;25.46;100.00;102513.41;5093739;28;20464;-78
2023/08/21 09:31:10;;;;;;;8.80;3.00;;;;;;;26.76;100.00;102507.34;5093982;28;20115;-77
2023/08/21 09:33:36;;;;;;;5.65;1.90;;;;;;;27.73;91.60;102496.00;5075259;28;20055;-77
2023/08/21 09:36:04;;;;;;;10.05;2.22;;;;;;;27.59;83.66;102498.75;5093361;28;20468;-78
2023/08/21 09:38:30;;;;;;;6.05;1.83;;;;;;;27.44;96.49;102503.63;5093248;28;20032;-77
2023/08/21 09:40:56;;;;;;;7.45;1.70;;;;;;;27.71;88.66;102492.66;5093138;28;20028;-77
2023/08/21 09:43:23;;;;;;;7.47;1.85;;;;;;;28.05;74.67;102496.97;5093407;28;20414;-77
2023/08/21 09:45:52;;;;;;;6.82;1.85;;;;;;;28.50;75.11;102494.22;5093628;28;20119;-78
2023/08/21 09:48:18;;;;;;;8.15;2.20;;;;;;;28.05;75.94;102490.66;5093215;28;20036;-77
2023/08/21 09:50:44;;;;;;;5.00;1.80;;;;;;;27.43;94.84;102491.00;5093235;28;20028;-78
2023/08/21 09:53:10;;;;;;;5.57;1.80;;;;;;;26.91;83.85;102488.03;5075183;28;20036;-82
2023/08/21 09:55:38;;;;;;;6.25;1.95;;;;;;;26.55;85.84;102498.22;5093823;28;20043;-78
2023/08/21 09:58:03;;;;;;;6.18;1.83;;;;;;;27.17;88.33;102497.28;5075238;28;20035;-78
2023/08/21 10:00:31;;;;;;;4.75;1.48;;;;;;;27.90;78.45;102501.81;5058253;28;20535;-77
2023/08/21 10:03:01;;;;;;;3.60;1.60;;;;;;;28.69;72.98;102498.97;5093518;28;20028;-77
2023/08/21 10:05:28;;;;;;;4.60;1.60;;;;;;;29.12;64.26;102501.81;5093674;28;20363;-77
2023/08/21 10:07:55;;;;;;;5.15;1.60;;;;;;;29.28;63.51;102500.44;5092659;28;20366;-77
2023/08/21 10:10:21;;;;;;;3.83;1.58;;;;;;;29.30;60.48;102501.03;5093097;28;20024;-77
2023/08/21 10:12:48;;;;;;;13.57;2.00;;;;;;;28.99;62.47;102504.66;5092819;28;20055;-75
2023/08/21 10:15:14;;;;;;;10.02;1.73;;;;;;;28.96;64.95;102503.22;5092923;28;20134;-78
2023/08/21 10:17:43;;;;;;;5.18;1.60;;;;;;;28.36;62.31;102500.81;5093040;28;20111;-76
2023/08/21 10:20:09;;;;;;;4.25;1.67;;;;;;;28.29;68.11;102500.88;5092855;28;20028;-77
2023/08/21 10:22:42;;;;;;;4.82;1.40;;;;;;;28.58;71.56;102500.50;5093331;28;20025;-77
2023/08/21 10:25:21;;;;;;;4.78;1.40;;;;;;;28.92;61.32;102507.47;5093001;28;20050;-77
2023/08/21 10:27:50;;;;;;;3.90;1.60;;;;;;;29.35;58.64;102492.13;5093483;28;20038;-79
2023/08/21 10:30:21;;;;;;;6.80;1.55;;;;;;;29.29;62.22;102496.66;5093294;28;20028;-75
2023/08/21 10:32:50;;;;;;;8.43;1.90;;;;;;;29.47;61.68;102490.34;5092987;28;20373;-74
2023/08/21 10:35:21;;;;;;;5.03;1.77;;;;;;;29.42;59.82;102486.59;5092706;28;20372;-79
2023/08/21 10:38:12;;;;;;;5.75;1.80;;;;;;;29.63;58.07;102488.91;5092894;28;20440;-76
2023/08/21 10:41:01;;;;;;;5.95;1.45;;;;;;;29.62;57.77;102492.72;5092699;28;20050;-75
2023/08/21 10:44:00;;;;;;;3.95;1.55;;;;;;;29.69;56.29;102496.25;5092284;28;20392;-76
2023/08/21 10:46:26;;;;;;;7.15;1.90;;;;;;;29.73;57.59;102494.69;5052113;28;20056;-75
2023/08/21 10:48:51;;;;;;;6.93;1.60;;;;;;;29.96;55.22;102492.38;5096159;28;20031;-75
2023/08/21 10:51:17;;;;;;;6.05;1.50;;;;;;;29.64;54.05;102487.84;5096218;28;20514;-75
2023/08/21 10:53:42;;;;;;;4.18;1.30;;;;;;;29.50;56.76;102478.06;5096600;28;20107;-75
2023/08/21 10:56:08;;;;;;;5.68;1.98;;;;;;;29.53;57.32;102480.38;5096710;28;20044;-75
2023/08/21 10:58:44;;;;;;;5.63;1.65;;;;;;;29.72;56.71;102481.22;5096221;28;20028;-75
2023/08/21 11:01:09;;;;;;;5.22;1.77;;;;;;;29.69;57.04;102481.66;5096726;28;20059;-75
2023/08/21 11:03:39;;;;;;;5.75;1.83;;;;;;;29.66;56.02;102482.13;5096164;28;20028;-76
2023/08/21 11:06:06;;;;;;;5.40;1.67;;;;;;;29.95;55.52;102487.94;5096030;28;20035;-76
2023/08/21 11:08:33;;;;;;;5.30;1.65;;;;;;;29.98;52.70;102484.75;5078646;28;20380;-75
2023/08/21 11:10:59;;;;;;;6.82;1.60;;;;;;;29.84;52.31;102500.53;5096102;28;20040;-75
2023/08/21 11:13:24;;;;;;;6.25;1.88;;;;;;;30.07;51.58;102494.34;5095676;28;20072;-76